Time;durP1;ratioP1;P1;durP2;ratioP2;P2;SDS_P1;SDS_P2;PMS_P1;PMS_P2;Temp;Humidity;BMP_temperature;BMP_pressure;BME280_temperature;BME280_humidity;BME280_pressure;Samples;Min_cycle;Max_cycle;Signal;HPM_P1;HPM_P2
2022/10/15 00:00:08;;;;;;;15.68;11.40;;;;;;;12.27;90.70;99729.28;5033462;28;20083;-72
2022/10/15 00:02:34;;;;;;;14.68;11.73;;;;;;;12.11;91.11;99732.69;5038836;28;20031;-72
2022/10/15 00:04:59;;;;;;;14.30;11.77;;;;;;;12.07;91.81;99726.13;5044513;28;20029;-72
2022/10/15 00:07:27;;;;;;;16.35;12.63;;;;;;;12.15;91.96;99721.63;5034347;28;20036;-72
2022/10/15 00:09:53;;;;;;;14.70;11.80;;;;;;;11.92;92.44;99716.28;5040179;28;20029;-72
2022/10/15 00:12:18;;;;;;;35.40;11.77;;;;;;;11.75;93.52;99718.00;5053782;28;20044;-72
2022/10/15 00:14:44;;;;;;;13.93;11.90;;;;;;;11.56;94.70;99710.00;5046517;28;20041;-72
2022/10/15 00:17:09;;;;;;;16.15;11.25;;;;;;;11.78;95.32;99714.56;5035255;28;20034;-72
2022/10/15 00:19:35;;;;;;;13.80;11.68;;;;;;;11.78;95.11;99710.91;5034146;28;20026;-72
2022/10/15 00:22:01;;;;;;;19.58;11.68;;;;;;;11.92;94.93;99705.88;5032962;28;20029;-72
2022/10/15 00:24:26;;;;;;;18.05;12.57;;;;;;;11.83;94.64;99710.72;5034099;28;20044;-72
2022/10/15 00:26:51;;;;;;;20.88;13.13;;;;;;;11.85;94.87;99704.78;5053586;28;20028;-72
2022/10/15 00:29:17;;;;;;;16.42;12.90;;;;;;;11.80;94.85;99706.63;5052136;28;20159;-72
2022/10/15 00:31:42;;;;;;;15.75;12.75;;;;;;;11.68;95.59;99708.47;5048260;28;20033;-72
2022/10/15 00:34:08;;;;;;;15.77;12.65;;;;;;;11.76;96.30;99693.63;5043194;28;20082;-72
2022/10/15 00:36:35;;;;;;;17.00;12.82;;;;;;;11.64;96.77;99700.75;5038616;28;20048;-72
2022/10/15 00:39:02;;;;;;;21.80;14.27;;;;;;;11.71;96.23;99691.03;5034829;28;20061;-71
2022/10/15 00:41:31;;;;;;;19.58;14.02;;;;;;;11.82;96.23;99697.06;5052122;28;20028;-72
2022/10/15 00:44:00;;;;;;;16.33;13.07;;;;;;;11.76;96.01;99688.00;5044059;28;20033;-72
2022/10/15 00:46:38;;;;;;;18.27;13.65;;;;;;;11.73;96.20;99688.69;5044330;28;20049;-72
2022/10/15 00:49:23;;;;;;;15.93;13.25;;;;;;;11.59;97.08;99689.75;5047698;28;20036;-72
2022/10/15 00:51:58;;;;;;;20.70;14.75;;;;;;;11.57;97.78;99689.25;5047194;28;20091;-72
2022/10/15 00:54:26;;;;;;;16.90;12.90;;;;;;;11.51;98.29;99685.00;5043731;28;20040;-72
2022/10/15 00:56:53;;;;;;;18.95;13.98;;;;;;;11.51;98.55;99683.00;5052882;28;20029;-73
2022/10/15 00:59:23;;;;;;;22.35;14.45;;;;;;;11.53;98.43;99682.69;5044052;28;20107;-72
2022/10/15 01:01:49;;;;;;;16.65;14.10;;;;;;;11.51;97.99;99685.81;5044286;28;20476;-72
2022/10/15 01:04:17;;;;;;;16.10;13.45;;;;;;;11.46;98.34;99679.56;5032656;28;20183;-72
2022/10/15 01:06:43;;;;;;;14.85;12.95;;;;;;;11.51;98.51;99679.41;5032998;28;20044;-72
2022/10/15 01:09:09;;;;;;;18.42;14.40;;;;;;;11.46;98.66;99672.00;5042508;28;20029;-72
2022/10/15 01:11:49;;;;;;;20.45;14.25;;;;;;;11.55;98.88;99680.34;5052493;28;20381;-73
2022/10/15 01:14:21;;;;;;;24.20;14.95;;;;;;;11.60;98.14;99682.16;5051711;28;20028;-72
2022/10/15 01:16:53;;;;;;;18.85;14.50;;;;;;;11.59;98.12;99683.31;5037515;28;20392;-72
2022/10/15 01:19:56;;;;;;;16.33;14.07;;;;;;;11.56;98.03;99693.22;5049190;28;20032;-72
2022/10/15 01:22:58;;;;;;;16.77;12.48;;;;;;;11.63;97.97;99692.69;5036091;28;20459;-72
2022/10/15 01:25:36;;;;;;;15.00;12.60;;;;;;;11.79;96.83;99687.31;5051388;28;20077;-73
2022/10/15 01:28:32;;;;;;;16.40;13.23;;;;;;;11.83;97.14;99685.50;5050350;28;20396;-72
2022/10/15 01:31:10;;;;;;;14.95;12.23;;;;;;;11.82;95.82;99678.25;5046390;28;20033;-73
2022/10/15 01:33:48;;;;;;;16.25;12.10;;;;;;;11.94;95.65;99685.94;5031985;28;20423;-73
2022/10/15 01:36:23;;;;;;;15.68;11.88;;;;;;;12.10;94.59;99688.16;5032297;28;20040;-73
2022/10/15 01:38:58;;;;;;;23.02;15.02;;;;;;;12.20;93.92;99679.34;5039938;28;20025;-73
2022/10/15 01:41:35;;;;;;;16.70;11.60;;;;;;;12.26;92.79;99685.59;5050273;28;20031;-72
2022/10/15 01:44:10;;;;;;;16.30;12.85;;;;;;;12.18;93.23;99682.50;5047841;28;20037;-73
2022/10/15 01:46:46;;;;;;;14.68;11.63;;;;;;;12.14;93.03;99681.53;5041937;28;20515;-72
2022/10/15 01:49:16;;;;;;;16.63;11.40;;;;;;;12.05;93.50;99677.97;5048540;28;20025;-72
2022/10/15 01:51:43;;;;;;;15.15;12.27;;;;;;;11.92;94.50;99679.84;5044841;28;20025;-72
2022/10/15 01:54:13;;;;;;;18.98;11.32;;;;;;;11.94;94.24;99674.72;5034092;28;20033;-72
2022/10/15 01:56:40;;;;;;;14.43;12.93;;;;;;;11.98;94.96;99675.66;5051710;28;20103;-72
2022/10/15 01:59:08;;;;;;;13.13;10.85;;;;;;;12.07;94.44;99675.66;5038361;28;20083;-72
2022/10/15 02:01:33;;;;;;;14.07;10.25;;;;;;;11.83;94.78;99673.47;5036402;28;20063;-73
2022/10/15 02:03:59;;;;;;;19.13;13.07;;;;;;;11.86;95.25;99676.41;5046184;28;20506;-73
2022/10/15 02:06:41;;;;;;;15.35;12.13;;;;;;;11.70;95.31;99678.13;5042408;28;20048;-73
2022/10/15 02:09:24;;;;;;;13.40;11.50;;;;;;;11.79;96.38;99681.72;5034985;28;20064;-73
2022/10/15 02:12:13;;;;;;;12.25;10.93;;;;;;;11.58;96.79;99674.06;5050423;28;20117;-72
2022/10/15 02:15:02;;;;;;;13.23;11.35;;;;;;;11.56;97.03;99676.41;5044183;28;20029;-72
2022/10/15 02:17:40;;;;;;;16.97;11.23;;;;;;;11.58;96.98;99678.88;5050148;28;21191;-72
2022/10/15 02:20:13;;;;;;;14.93;11.30;;;;;;;11.51;97.45;99679.41;5050456;28;20036;-72
2022/10/15 02:22:52;;;;;;;18.50;12.45;;;;;;;11.38;98.22;99672.84;5040192;28;20481;-72
2022/10/15 02:25:21;;;;;;;14.07;11.73;;;;;;;11.30;98.74;99671.72;5044609;28;20040;-72
2022/10/15 02:27:50;;;;;;;15.10;12.48;;;;;;;11.23;99.22;99671.44;5041300;28;20037;-71
2022/10/15 02:30:17;;;;;;;16.80;11.85;;;;;;;11.31;98.97;99661.38;5043398;28;20028;-72
2022/10/15 02:32:47;;;;;;;16.13;10.73;;;;;;;11.25;98.31;99669.13;5050165;28;20056;-71
2022/10/15 02:35:13;;;;;;;13.32;11.15;;;;;;;11.34;98.35;99669.09;5050350;28;20103;-71
2022/10/15 02:37:43;;;;;;;12.40;10.27;;;;;;;11.34;97.91;99672.72;5050247;28;20483;-72
2022/10/15 02:40:09;;;;;;;12.82;10.70;;;;;;;11.44;97.72;99679.09;5034605;28;20421;-72
2022/10/15 02:42:34;;;;;;;15.32;10.57;;;;;;;11.61;97.83;99681.00;5030758;28;20028;-72
2022/10/15 02:45:00;;;;;;;13.38;10.30;;;;;;;11.55;96.97;99683.16;5033055;28;20491;-72
2022/10/15 02:47:25;;;;;;;12.55;11.25;;;;;;;11.55;96.71;99683.16;5029994;28;20032;-72
2022/10/15 02:49:51;;;;;;;14.05;10.73;;;;;;;11.73;95.89;99681.09;5038722;28;20431;-72
2022/10/15 02:52:16;;;;;;;12.65;9.93;;;;;;;11.61;95.27;99684.63;5049944;28;20033;-72
2022/10/15 02:54:42;;;;;;;17.23;11.02;;;;;;;11.72;95.52;99676.66;5044275;28;20032;-72
2022/10/15 02:57:07;;;;;;;15.35;11.43;;;;;;;11.76;95.09;99674.00;5037620;28;20025;-72
2022/10/15 02:59:33;;;;;;;13.90;11.32;;;;;;;11.80;94.55;99680.56;5054167;28;20040;-72
2022/10/15 03:01:58;;;;;;;21.13;10.77;;;;;;;11.67;95.60;99679.66;5057536;28;20408;-72
2022/10/15 03:04:24;;;;;;;12.45;10.43;;;;;;;11.72;95.75;99678.66;5056572;28;20033;-72
2022/10/15 03:06:49;;;;;;;15.85;11.07;;;;;;;11.91;94.77;99673.41;5055472;28;20028;-72
2022/10/15 03:09:15;;;;;;;16.23;10.00;;;;;;;11.92;94.44;99677.03;5056438;28;20039;-72
2022/10/15 03:11:40;;;;;;;12.82;9.98;;;;;;;11.87;94.57;99675.25;5057374;28;20487;-72
2022/10/15 03:14:06;;;;;;;13.75;10.15;;;;;;;12.13;93.40;99679.91;5052904;28;20492;-72
2022/10/15 03:16:31;;;;;;;11.30;10.07;;;;;;;12.21;92.71;99678.19;5043933;28;20033;-72
2022/10/15 03:18:57;;;;;;;12.00;10.18;;;;;;;12.41;91.90;99678.56;5036693;28;20033;-72
2022/10/15 03:21:22;;;;;;;11.82;10.30;;;;;;;12.43;91.42;99681.81;5036886;28;20148;-73
2022/10/15 03:23:48;;;;;;;9.85;8.82;;;;;;;12.55;90.59;99681.88;5039055;28;20506;-72
2022/10/15 03:26:14;;;;;;;13.77;10.00;;;;;;;12.68;89.36;99684.75;5047406;28;20029;-72
2022/10/15 03:28:39;;;;;;;12.70;9.93;;;;;;;12.74;89.09;99689.81;5053825;28;20029;-73
2022/10/15 03:31:04;;;;;;;11.20;8.95;;;;;;;12.85;88.19;99689.38;5056342;28;20032;-73
2022/10/15 03:33:30;;;;;;;15.73;8.98;;;;;;;12.86;87.68;99683.44;5056195;28;20027;-72
2022/10/15 03:35:56;;;;;;;11.80;9.18;;;;;;;12.96;87.22;99686.94;5048849;28;20037;-72
2022/10/15 03:38:21;;;;;;;14.02;9.77;;;;;;;13.02;86.50;99683.56;5049579;28;20029;-73
2022/10/15 03:40:50;;;;;;;16.42;10.65;;;;;;;13.08;86.32;99689.00;5056282;28;20385;-72
2022/10/15 03:43:15;;;;;;;10.35;8.55;;;;;;;13.12;85.83;99692.75;5042873;28;20017;-73
2022/10/15 03:45:41;;;;;;;18.27;9.60;;;;;;;13.17;84.96;99687.72;5040665;28;20046;-72
2022/10/15 03:48:06;;;;;;;11.63;8.45;;;;;;;13.14;85.23;99690.41;5037393;28;20033;-73
2022/10/15 03:50:32;;;;;;;13.55;9.73;;;;;;;13.16;84.97;99686.09;5050559;28;20029;-73
2022/10/15 03:52:57;;;;;;;11.43;9.45;;;;;;;13.25;83.78;99685.97;5050463;28;20022;-73
2022/10/15 03:55:23;;;;;;;31.75;9.23;;;;;;;13.27;83.98;99689.28;5051742;28;20060;-73
2022/10/15 03:57:48;;;;;;;12.43;9.15;;;;;;;13.28;83.36;99690.09;5036755;28;20026;-72
2022/10/15 04:00:14;;;;;;;11.05;8.57;;;;;;;13.30;83.49;99691.38;5039880;28;20032;-73
2022/10/15 04:02:40;;;;;;;13.98;9.35;;;;;;;13.31;83.63;99687.41;5035698;28;20053;-73
2022/10/15 04:05:05;;;;;;;15.32;7.90;;;;;;;13.31;83.12;99687.41;5034187;28;20039;-72
2022/10/15 04:07:31;;;;;;;10.73;8.35;;;;;;;13.19;84.32;99687.38;5039085;28;20512;-73
2022/10/15 04:09:56;;;;;;;12.27;8.77;;;;;;;13.09;84.66;99699.84;5049725;28;20024;-72
2022/10/15 04:12:22;;;;;;;16.95;9.20;;;;;;;13.01;85.21;99701.59;5048991;28;20025;-73
2022/10/15 04:14:47;;;;;;;22.08;8.90;;;;;;;13.09;84.83;99680.19;5040005;28;20028;-73
2022/10/15 04:17:12;;;;;;;13.85;8.85;;;;;;;13.06;84.90;99690.16;5033766;28;20033;-74
2022/10/15 04:19:38;;;;;;;17.02;8.02;;;;;;;13.10;84.48;99692.28;5034800;28;20021;-74
2022/10/15 04:22:03;;;;;;;12.65;9.10;;;;;;;13.17;84.48;99695.34;5036918;28;20021;-74
2022/10/15 04:24:29;;;;;;;18.13;9.10;;;;;;;13.09;84.63;99691.44;5046899;28;20045;-73
2022/10/15 04:26:55;;;;;;;15.50;9.05;;;;;;;13.16;84.56;99696.50;5042942;28;20098;-74
2022/10/15 04:29:20;;;;;;;10.27;9.18;;;;;;;13.08;84.61;99692.59;5033107;28;20033;-74
2022/10/15 04:31:46;;;;;;;14.93;9.90;;;;;;;13.05;84.78;99693.31;5033650;28;20021;-74
2022/10/15 04:34:11;;;;;;;14.68;10.88;;;;;;;13.11;84.27;99693.91;5033144;28;20109;-74
2022/10/15 04:36:36;;;;;;;12.52;10.63;;;;;;;13.06;84.96;99701.41;5033462;28;20404;-73
2022/10/15 04:39:03;;;;;;;14.65;10.57;;;;;;;13.10;84.13;99693.09;5045517;28;20024;-73
2022/10/15 04:41:29;;;;;;;15.43;9.98;;;;;;;13.13;84.33;99695.22;5052023;28;20501;-74
2022/10/15 04:43:55;;;;;;;14.25;10.10;;;;;;;13.14;84.08;99687.59;5046826;28;20025;-74
2022/10/15 04:46:21;;;;;;;26.75;13.32;;;;;;;13.17;83.66;99698.94;5035312;28;20077;-74
2022/10/15 04:48:47;;;;;;;29.35;15.88;;;;;;;13.12;84.31;99699.19;5036730;28;20064;-74
2022/10/15 04:51:22;;;;;;;25.70;15.45;;;;;;;13.13;83.83;99689.59;5040730;28;20109;-72
2022/10/15 04:53:48;;;;;;;35.60;16.83;;;;;;;13.22;83.49;99697.13;5041250;28;20515;-75
2022/10/15 04:56:17;;;;;;;32.15;17.30;;;;;;;13.23;83.49;99702.38;5038230;28;20108;-74
2022/10/15 04:58:44;;;;;;;36.72;17.92;;;;;;;13.26;83.55;99700.84;5033962;28;20021;-73
2022/10/15 05:01:12;;;;;;;24.75;15.82;;;;;;;13.27;84.04;99705.31;5036270;28;20030;-71
2022/10/15 05:03:40;;;;;;;36.67;18.55;;;;;;;13.24;84.04;99704.00;5047716;28;20033;-71
2022/10/15 05:06:08;;;;;;;26.13;15.68;;;;;;;13.25;84.03;99694.41;5053302;28;20021;-72
2022/10/15 05:08:35;;;;;;;45.35;16.95;;;;;;;13.28;83.56;99704.13;5044295;28;20044;-71
2022/10/15 05:11:02;;;;;;;25.23;12.98;;;;;;;13.33;83.61;99715.13;5045617;28;20028;-72
2022/10/15 05:13:30;;;;;;;23.85;14.32;;;;;;;13.26;84.01;99706.47;5045077;28;20425;-71
2022/10/15 05:15:56;;;;;;;29.27;14.65;;;;;;;13.27;83.76;99710.91;5032143;28;20036;-70
2022/10/15 05:18:21;;;;;;;26.80;15.05;;;;;;;13.31;83.63;99714.66;5035218;28;20395;-70
2022/10/15 05:20:47;;;;;;;38.20;22.10;;;;;;;13.29;83.78;99711.38;5036548;28;20163;-69
2022/10/15 05:23:13;;;;;;;46.90;24.27;;;;;;;13.36;83.22;99722.06;5043150;28;20075;-69
2022/10/15 05:25:38;;;;;;;41.20;20.90;;;;;;;13.39;83.62;99724.16;5031430;28;20045;-69
2022/10/15 05:28:03;;;;;;;34.55;21.92;;;;;;;13.40;83.41;99711.78;5040733;28;20032;-69
2022/10/15 05:30:29;;;;;;;49.78;21.88;;;;;;;13.36;83.65;99727.66;5042330;28;20029;-70
2022/10/15 05:32:54;;;;;;;37.80;18.70;;;;;;;13.23;84.87;99730.44;5034728;28;20039;-69
2022/10/15 05:35:20;;;;;;;32.50;17.98;;;;;;;13.20;84.17;99728.34;5037081;28;20028;-68
2022/10/15 05:37:47;;;;;;;54.17;19.08;;;;;;;13.22;84.85;99733.63;5034776;28;20124;-69
2022/10/15 05:40:12;;;;;;;28.40;16.52;;;;;;;12.89;86.30;99738.88;5041811;28;20111;-69
2022/10/15 05:42:38;;;;;;;30.45;19.27;;;;;;;12.86;87.26;99733.13;5044222;28;20043;-68
2022/10/15 05:45:04;;;;;;;38.78;21.95;;;;;;;12.89;87.00;99744.50;5042601;28;20072;-69
2022/10/15 05:47:29;;;;;;;42.33;26.77;;;;;;;12.85;87.38;99749.16;5046553;28;20056;-68
2022/10/15 05:49:56;;;;;;;53.20;30.50;;;;;;;12.64;87.80;99752.78;5045094;28;20025;-68
2022/10/15 05:52:21;;;;;;;39.72;27.42;;;;;;;12.39;90.50;99749.00;5034021;28;20033;-68
2022/10/15 05:54:47;;;;;;;30.20;22.88;;;;;;;12.21;91.35;99743.53;5029567;28;20055;-68
2022/10/15 05:57:12;;;;;;;25.13;20.27;;;;;;;12.55;90.73;99752.03;5040314;28;20025;-69
2022/10/15 05:59:38;;;;;;;24.55;19.42;;;;;;;12.72;89.73;99751.06;5036211;28;20106;-69
2022/10/15 06:02:03;;;;;;;19.27;13.77;;;;;;;12.88;88.88;99754.09;5033615;28;20454;-70
2022/10/15 06:04:30;;;;;;;16.15;12.48;;;;;;;12.90;88.80;99751.75;5039142;28;20446;-69
2022/10/15 06:06:56;;;;;;;16.30;11.63;;;;;;;12.95;88.73;99756.34;5047718;28;20036;-68
2022/10/15 06:09:22;;;;;;;16.67;12.18;;;;;;;12.92;88.55;99748.63;5033188;28;20032;-72
2022/10/15 06:11:47;;;;;;;21.10;13.38;;;;;;;13.09;88.19;99755.22;5044951;28;20044;-76
2022/10/15 06:14:13;;;;;;;23.00;13.90;;;;;;;13.04;88.05;99761.88;5044790;28;20087;-73
2022/10/15 06:16:38;;;;;;;23.10;13.57;;;;;;;13.08;88.30;99762.00;5028551;28;20025;-73
2022/10/15 06:19:03;;;;;;;22.00;14.48;;;;;;;13.09;87.56;99770.06;5036879;28;20025;-74
2022/10/15 06:34:30;;;;;;;17.95;14.32;;;;;;;14.12;82.68;99773.25;5072506;27;20615;-66
2022/10/15 06:36:55;;;;;;;21.13;15.10;;;;;;;14.14;82.73;99786.94;5028422;28;20068;-71
2022/10/15 06:39:21;;;;;;;17.10;12.85;;;;;;;14.03;83.77;99778.97;5016159;28;20519;-68
2022/10/15 06:41:46;;;;;;;17.05;10.98;;;;;;;13.80;84.56;99789.84;5024371;28;20083;-69
2022/10/15 06:44:12;;;;;;;18.55;11.27;;;;;;;13.74;84.39;99792.06;5025144;28;20038;-67
2022/10/15 06:46:37;;;;;;;13.55;9.82;;;;;;;13.66;85.02;99786.56;5020173;28;20042;-67
2022/10/15 06:49:03;;;;;;;16.33;12.20;;;;;;;13.69;85.82;99792.28;5023642;28;20029;-66
2022/10/15 06:51:28;;;;;;;21.65;14.68;;;;;;;13.70;85.35;99788.31;5025926;28;20496;-67
2022/10/15 06:53:53;;;;;;;27.35;16.80;;;;;;;13.74;85.78;99796.84;5024583;28;20464;-71
2022/10/15 06:56:19;;;;;;;26.05;17.45;;;;;;;13.73;86.15;99789.59;5026461;28;20037;-70
2022/10/15 06:58:44;;;;;;;21.75;15.43;;;;;;;13.87;85.60;99792.88;5025166;28;20029;-67
2022/10/15 07:01:10;;;;;;;25.05;17.40;;;;;;;14.02;85.51;99794.19;5023019;28;20044;-66
2022/10/15 07:03:37;;;;;;;24.65;15.48;;;;;;;13.93;85.40;99789.88;5026591;28;20088;-67
2022/10/15 07:06:05;;;;;;;20.38;12.20;;;;;;;14.15;84.45;99797.84;5027263;28;20100;-66
2022/10/15 07:08:31;;;;;;;21.92;11.57;;;;;;;14.17;83.61;99787.06;5028284;28;20104;-67
2022/10/15 07:10:56;;;;;;;20.10;12.15;;;;;;;14.09;82.50;99785.19;5025779;28;20063;-74
2022/10/15 07:13:22;;;;;;;20.80;11.68;;;;;;;14.12;83.68;99786.47;5030308;28;20102;-70
2022/10/15 07:15:52;;;;;;;13.43;9.77;;;;;;;14.15;81.93;99782.94;5021782;28;20073;-71
2022/10/15 07:18:18;;;;;;;15.00;10.70;;;;;;;14.52;82.31;99777.28;5029093;28;20036;-66
2022/10/15 07:20:44;;;;;;;17.20;10.32;;;;;;;14.49;83.27;99777.19;5028062;28;20577;-67
2022/10/15 07:23:10;;;;;;;11.48;9.32;;;;;;;14.63;81.37;99776.81;5027115;28;20021;-66
2022/10/15 07:25:35;;;;;;;11.98;8.70;;;;;;;14.92;79.59;99767.25;5025783;28;20040;-67
2022/10/15 07:28:01;;;;;;;17.73;9.48;;;;;;;15.02;81.05;99778.03;5024760;28;20040;-67
2022/10/15 07:30:27;;;;;;;16.02;9.73;;;;;;;15.21;80.95;99779.38;5028053;28;20385;-67
2022/10/15 07:32:54;;;;;;;18.80;8.65;;;;;;;15.43;78.56;99777.13;5026363;28;20054;-67
2022/10/15 07:35:20;;;;;;;12.63;7.57;;;;;;;15.66;75.82;99776.53;5015545;28;20053;-66
2022/10/15 07:37:46;;;;;;;9.25;7.07;;;;;;;15.62;74.94;99770.78;5011032;28;20469;-67
2022/10/15 07:40:12;;;;;;;11.13;7.20;;;;;;;15.47;75.92;99780.88;5014495;28;20183;-66
2022/10/15 07:42:39;;;;;;;11.38;6.93;;;;;;;15.39;71.93;99767.75;5012500;28;20473;-67
2022/10/15 07:45:05;;;;;;;10.20;6.35;;;;;;;15.63;73.53;99777.25;5009839;28;20055;-69
2022/10/15 07:47:31;;;;;;;10.40;6.78;;;;;;;16.03;72.37;99773.47;5001226;28;20026;-65
2022/10/15 07:49:57;;;;;;;11.85;6.07;;;;;;;15.93;72.25;99774.84;4995007;28;20558;-67
2022/10/15 07:52:22;;;;;;;8.30;6.18;;;;;;;15.47;71.71;99777.22;5017685;28;20451;-67
2022/10/15 07:54:48;;;;;;;10.70;7.72;;;;;;;15.52;72.27;99776.97;5032717;28;20041;-67
2022/10/15 07:57:13;;;;;;;8.70;5.80;;;;;;;15.16;69.57;99777.63;5013440;28;20472;-67
2022/10/15 07:59:39;;;;;;;10.75;6.45;;;;;;;15.16;70.86;99782.41;5014419;28;20041;-66
2022/10/15 08:02:04;;;;;;;12.00;6.40;;;;;;;15.48;72.11;99776.88;5012961;28;20018;-67
2022/10/15 08:04:29;;;;;;;8.45;5.78;;;;;;;15.48;71.52;99781.69;5014085;28;20034;-67
2022/10/15 08:06:55;;;;;;;13.05;6.07;;;;;;;14.97;70.07;99785.91;5012739;28;20033;-67
2022/10/15 08:09:21;;;;;;;12.60;6.85;;;;;;;14.98;71.60;99782.75;5012978;28;20032;-68
2022/10/15 08:11:46;;;;;;;11.75;6.60;;;;;;;14.84;71.42;99787.91;5010462;28;20412;-67
2022/10/15 08:14:12;;;;;;;13.65;7.40;;;;;;;14.77;71.07;99779.28;4994637;28;20030;-68
2022/10/15 08:16:37;;;;;;;10.48;6.28;;;;;;;14.81;71.18;99783.84;5008240;28;20034;-67
2022/10/15 08:19:03;;;;;;;10.70;5.97;;;;;;;14.80;70.53;99787.84;5014110;28;20030;-74
2022/10/15 08:21:29;;;;;;;7.70;6.22;;;;;;;14.82;70.60;99793.09;5014063;28;20064;-69
2022/10/15 08:23:54;;;;;;;9.43;6.40;;;;;;;15.01;72.12;99793.28;5014055;28;20025;-66
2022/10/15 08:26:20;;;;;;;11.35;5.13;;;;;;;15.28;70.88;99787.19;5013091;28;20038;-66
2022/10/15 08:28:45;;;;;;;9.52;5.15;;;;;;;15.88;67.64;99785.53;5013683;28;20021;-66
2022/10/15 08:31:11;;;;;;;9.40;4.53;;;;;;;16.14;64.18;99785.84;5013873;28;20026;-68
2022/10/15 08:33:37;;;;;;;8.82;4.90;;;;;;;16.48;64.32;99791.09;5011686;28;20042;-67
2022/10/15 08:36:06;;;;;;;13.55;4.93;;;;;;;16.21;64.32;99792.84;5008316;28;20045;-67
2022/10/15 08:38:32;;;;;;;7.55;4.85;;;;;;;16.07;64.18;99785.69;5007999;28;20030;-67
2022/10/15 08:40:59;;;;;;;9.45;4.50;;;;;;;15.99;65.28;99790.31;5012207;28;20037;-67
2022/10/15 08:43:31;;;;;;;14.38;6.45;;;;;;;16.37;65.66;99793.63;5013359;28;20396;-67
2022/10/15 08:46:00;;;;;;;11.63;4.78;;;;;;;16.51;64.27;99790.34;5009865;28;20112;-67
2022/10/15 08:48:40;;;;;;;8.93;4.75;;;;;;;16.72;63.25;99794.84;5013259;28;20080;-67
2022/10/15 08:51:11;;;;;;;10.80;5.75;;;;;;;16.64;62.99;99796.66;5011556;28;20057;-67
2022/10/15 08:53:44;;;;;;;13.63;5.82;;;;;;;16.84;63.79;99796.72;5008992;28;20033;-67
2022/10/15 08:56:32;;;;;;;12.68;5.07;;;;;;;17.16;63.40;99802.28;5010800;28;20030;-68
2022/10/15 08:59:23;;;;;;;11.57;4.72;;;;;;;17.25;61.83;99811.34;4992151;28;20030;-67
2022/10/15 09:02:01;;;;;;;11.05;4.15;;;;;;;17.31;61.08;99805.38;4975957;28;20030;-67
2022/10/15 09:04:47;;;;;;;14.32;5.43;;;;;;;17.63;59.91;99805.22;5008317;28;20080;-67
2022/10/15 09:07:23;;;;;;;10.80;5.35;;;;;;;17.56;59.25;99811.53;5011015;28;20037;-68
2022/10/15 09:10:00;;;;;;;18.60;8.20;;;;;;;17.45;59.25;99811.31;5011892;28;20116;-67
2022/10/15 09:12:37;;;;;;;23.60;9.20;;;;;;;17.69;57.17;99803.69;5012668;28;20033;-69
2022/10/15 09:15:09;;;;;;;14.73;6.25;;;;;;;17.21;59.83;99803.97;5023031;28;20063;-67
2022/10/15 09:17:36;;;;;;;10.18;4.70;;;;;;;17.60;57.36;99803.94;5016064;28;20029;-67
2022/10/15 09:20:05;;;;;;;17.27;6.00;;;;;;;17.97;58.96;99805.38;5006333;28;20022;-67
2022/10/15 09:22:32;;;;;;;9.23;5.70;;;;;;;17.79;57.80;99799.41;5007534;28;20028;-68
2022/10/15 09:24:58;;;;;;;13.38;5.93;;;;;;;17.50;56.55;99802.56;5004705;28;20073;-67
2022/10/15 09:27:32;;;;;;;14.00;6.30;;;;;;;17.31;56.06;99799.72;5011907;28;20036;-67
2022/10/15 09:30:32;;;;;;;9.85;5.15;;;;;;;17.29;58.35;99797.25;5012803;28;20040;-69
2022/10/15 09:33:18;;;;;;;7.45;4.65;;;;;;;17.85;54.69;99806.41;4991615;28;20433;-70
2022/10/15 09:35:57;;;;;;;11.20;4.32;;;;;;;18.12;54.03;99800.81;4992904;28;20413;-69
2022/10/15 09:38:42;;;;;;;8.02;4.13;;;;;;;18.22;53.81;99790.88;5008806;28;20063;-71
2022/10/15 09:41:44;;;;;;;9.63;4.40;;;;;;;18.38;53.25;99788.72;5011598;28;20080;-73
2022/10/15 09:44:13;;;;;;;7.07;3.35;;;;;;;18.27;51.36;99792.56;4998156;28;20072;-70
2022/10/15 09:46:47;;;;;;;12.60;4.97;;;;;;;18.41;50.53;99789.16;4999263;28;20032;-70
2022/10/15 09:49:18;;;;;;;8.68;3.75;;;;;;;18.61;50.19;99790.69;5011194;28;20032;-70
2022/10/15 09:52:23;;;;;;;13.57;4.53;;;;;;;18.86;50.18;99789.38;5008157;28;20026;-80
2022/10/15 09:55:00;;;;;;;7.22;4.30;;;;;;;19.15;49.74;99782.09;5005109;28;20054;-74
2022/10/15 09:57:27;;;;;;;9.18;4.70;;;;;;;18.69;51.82;99780.25;5007819;28;20032;-73
2022/10/15 10:00:07;;;;;;;11.75;4.60;;;;;;;18.29;52.07;99776.03;5009445;28;20493;-70
2022/10/15 10:02:32;;;;;;;;;;;;;;;18.58;50.45;99779.28;5002523;28;20030;-70
2022/10/15 10:05:19;;;;;;;7.85;4.30;;;;;;;18.89;50.84;99780.94;4999057;28;19917;-73
2022/10/15 10:07:44;;;;;;;7.40;4.57;;;;;;;18.41;50.77;99772.16;5011070;28;20451;-74
2022/10/15 10:10:31;;;;;;;13.73;4.88;;;;;;;18.98;50.05;99771.34;5003354;28;20034;-70
2022/10/15 10:12:57;;;;;;;8.55;4.40;;;;;;;18.93;49.41;99775.31;5010019;28;20105;-74
2022/10/15 10:15:32;;;;;;;6.55;3.95;;;;;;;19.04;47.89;99762.13;5010062;28;20044;-70
2022/10/15 10:17:58;;;;;;;11.23;4.55;;;;;;;19.66;48.37;99765.63;5011098;28;20026;-70
2022/10/15 10:20:29;;;;;;;8.10;5.20;;;;;;;19.36;48.17;99769.38;5010438;28;20042;-68
2022/10/15 10:23:19;;;;;;;10.02;4.75;;;;;;;19.02;47.03;99772.22;5010627;28;20037;-69
2022/10/15 10:25:45;;;;;;;;;;;;;;;19.25;47.01;99776.94;5012131;28;20416;-68
2022/10/15 10:28:10;;;;;;;6.18;3.92;;;;;;;19.41;46.63;99765.38;5009567;28;19910;-71
2022/10/15 10:30:41;;;;;;;10.45;4.63;;;;;;;19.46;46.00;99756.50;5017143;28;20033;-69
2022/10/15 10:33:12;;;;;;;7.57;3.55;;;;;;;19.48;45.36;99763.44;5008044;28;20044;-70
2022/10/15 10:35:48;;;;;;;8.32;4.00;;;;;;;19.21;44.98;99755.06;5010211;28;20044;-69
2022/10/15 10:38:23;;;;;;;5.47;3.80;;;;;;;19.40;45.24;99761.72;5011802;28;20054;-71
2022/10/15 10:40:51;;;;;;;4.30;3.17;;;;;;;19.87;43.29;99753.69;5006497;28;20179;-70
2022/10/15 10:43:20;;;;;;;5.10;3.22;;;;;;;19.80;43.99;99758.47;5006290;28;20018;-69
2022/10/15 10:46:13;;;;;;;4.78;2.88;;;;;;;19.85;42.88;99755.28;5010036;28;20144;-69
2022/10/15 10:48:47;;;;;;;10.05;3.53;;;;;;;19.49;43.55;99753.72;4991705;28;20125;-69
2022/10/15 10:51:25;;;;;;;6.43;3.65;;;;;;;19.35;43.91;99753.56;4991891;28;20109;-69
2022/10/15 10:54:02;;;;;;;8.32;3.45;;;;;;;19.54;44.76;99748.88;4995464;28;20097;-67
2022/10/15 10:56:33;;;;;;;9.20;3.83;;;;;;;19.78;43.88;99751.16;5011430;28;20041;-67
2022/10/15 10:59:09;;;;;;;6.10;2.90;;;;;;;19.73;42.76;99750.69;5010071;28;20033;-70
2022/10/15 11:01:34;;;;;;;9.15;3.00;;;;;;;19.69;44.24;99747.03;5011411;28;20030;-69
2022/10/15 11:04:00;;;;;;;3.88;2.85;;;;;;;19.63;43.92;99740.88;5009411;28;20029;-68
2022/10/15 11:06:31;;;;;;;6.43;3.22;;;;;;;19.43;44.63;99749.63;5007956;28;20092;-70
2022/10/15 11:08:57;;;;;;;6.65;3.85;;;;;;;18.96;44.78;99742.56;4997804;28;20062;-69
2022/10/15 11:11:32;;;;;;;5.25;4.28;;;;;;;19.30;44.80;99734.06;4998993;28;20109;-68
2022/10/15 11:14:02;;;;;;;5.93;4.03;;;;;;;19.52;44.29;99734.28;5009729;28;20029;-69
2022/10/15 11:16:45;;;;;;;5.15;3.00;;;;;;;19.23;42.75;99737.63;5005333;28;20018;-68
2022/10/15 11:19:33;;;;;;;7.38;2.90;;;;;;;19.15;43.07;99733.09;4996015;28;20026;-69
2022/10/15 11:21:58;;;;;;;10.00;3.60;;;;;;;19.38;43.44;99726.47;5004564;28;20104;-70
2022/10/15 11:24:50;;;;;;;10.95;3.75;;;;;;;19.75;42.89;99720.72;5012124;28;20556;-68
2022/10/15 11:27:47;;;;;;;11.45;3.10;;;;;;;19.80;41.66;99722.41;5002488;28;20022;-69
2022/10/15 11:30:12;;;;;;;6.18;2.97;;;;;;;20.20;41.67;99714.22;5000685;28;20033;-69
2022/10/15 11:32:50;;;;;;;4.95;2.92;;;;;;;19.97;40.80;99714.44;5001417;28;20636;-68
2022/10/15 11:35:34;;;;;;;6.15;3.03;;;;;;;20.25;41.87;99719.50;5006553;28;20038;-69
2022/10/15 11:37:59;;;;;;;6.03;3.00;;;;;;;20.39;41.42;99715.97;5001110;28;20034;-69
2022/10/15 11:40:35;;;;;;;6.13;3.10;;;;;;;20.53;41.50;99712.41;4999541;28;20045;-68
2022/10/15 11:43:03;;;;;;;10.05;3.13;;;;;;;20.59;40.83;99710.00;5003007;28;20679;-69
2022/10/15 11:45:42;;;;;;;11.35;3.17;;;;;;;20.20;40.87;99711.38;5001440;28;20057;-69
2022/10/15 11:48:32;;;;;;;9.50;3.58;;;;;;;20.07;41.22;99708.03;4997604;28;20045;-69